Terminal Aerodrome Forecast
Issued by NWS Jackson, KY

Home | Current Version | Previous Version | Text Only | Print | Product List | Glossary On
Versions: 1 2 3 4 5 6 7 8 9 10 11 12 13 14 15 16 17
000
FTUS43 KJKL 251740
TAFJKL
TAF
KJKL 251740Z 2518/2618 VRB03KT P6SM SCT040 BKN250
     FM260400 VRB05KT P6SM VCSH OVC025
     FM260700 VRB05KT 3SM -SN BKN008 OVC020
     FM261100 33007KT P6SM VCSH SCT015 BKN025=

USA.gov is the U.S. government's official web portal to all federal, state and local government web resources and services.